sensor_id;sensor_type;location;lat;lon;timestamp;temperature;humidity
14473;DHT22;7322;50.872;4.386;2023-05-07T00:00:38;23.00;99.90
14473;DHT22;7322;50.872;4.386;2023-05-07T00:03:05;23.00;99.90
14473;DHT22;7322;50.872;4.386;2023-05-07T00:05:32;23.00;99.90
14473;DHT22;7322;50.872;4.386;2023-05-07T00:07:59;23.00;99.90
14473;DHT22;7322;50.872;4.386;2023-05-07T00:10:26;23.00;99.90
14473;DHT22;7322;50.872;4.386;2023-05-07T00:12:55;23.00;99.90
14473;DHT22;7322;50.872;4.386;2023-05-07T00:15:22;23.00;99.90
14473;DHT22;7322;50.872;4.386;2023-05-07T00:17:49;23.00;99.90
14473;DHT22;7322;50.872;4.386;2023-05-07T00:20:16;23.00;99.90
14473;DHT22;7322;50.872;4.386;2023-05-07T00:22:43;23.00;99.90
14473;DHT22;7322;50.872;4.386;2023-05-07T00:25:10;23.00;99.90
14473;DHT22;7322;50.872;4.386;2023-05-07T00:27:37;23.00;99.90
14473;DHT22;7322;50.872;4.386;2023-05-07T00:30:06;23.00;99.90
14473;DHT22;7322;50.872;4.386;2023-05-07T00:32:33;23.00;99.90
14473;DHT22;7322;50.872;4.386;2023-05-07T00:35:00;23.00;99.90
14473;DHT22;7322;50.872;4.386;2023-05-07T00:37:28;23.00;99.90
14473;DHT22;7322;50.872;4.386;2023-05-07T00:39:56;23.00;99.90
14473;DHT22;7322;50.872;4.386;2023-05-07T00:42:23;23.00;99.90
14473;DHT22;7322;50.872;4.386;2023-05-07T00:44:50;23.00;99.90
14473;DHT22;7322;50.872;4.386;2023-05-07T00:47:18;23.00;99.90
14473;DHT22;7322;50.872;4.386;2023-05-07T00:49:45;23.00;99.90
14473;DHT22;7322;50.872;4.386;2023-05-07T00:52:15;23.00;99.90
14473;DHT22;7322;50.872;4.386;2023-05-07T00:54:44;23.00;99.90
14473;DHT22;7322;50.872;4.386;2023-05-07T00:57:12;23.00;99.90
14473;DHT22;7322;50.872;4.386;2023-05-07T00:59:39;23.00;99.90
14473;DHT22;7322;50.872;4.386;2023-05-07T01:02:06;23.00;99.90
14473;DHT22;7322;50.872;4.386;2023-05-07T01:04:36;23.00;99.90
14473;DHT22;7322;50.872;4.386;2023-05-07T01:07:05;23.00;99.90
14473;DHT22;7322;50.872;4.386;2023-05-07T01:09:32;23.00;99.90
14473;DHT22;7322;50.872;4.386;2023-05-07T01:12:01;23.00;99.90
14473;DHT22;7322;50.872;4.386;2023-05-07T01:14:29;23.00;99.90
14473;DHT22;7322;50.872;4.386;2023-05-07T01:16:58;23.00;99.90
14473;DHT22;7322;50.872;4.386;2023-05-07T01:19:25;23.00;99.90
14473;DHT22;7322;50.872;4.386;2023-05-07T01:22:01;23.00;99.90
14473;DHT22;7322;50.872;4.386;2023-05-07T01:24:38;23.10;99.90
14473;DHT22;7322;50.872;4.386;2023-05-07T01:27:05;23.00;99.90
14473;DHT22;7322;50.872;4.386;2023-05-07T01:29:33;23.00;99.90
14473;DHT22;7322;50.872;4.386;2023-05-07T01:32:03;23.00;99.90
14473;DHT22;7322;50.872;4.386;2023-05-07T01:34:41;23.00;99.90
14473;DHT22;7322;50.872;4.386;2023-05-07T01:37:10;23.00;99.90
14473;DHT22;7322;50.872;4.386;2023-05-07T01:39:42;23.00;99.90
14473;DHT22;7322;50.872;4.386;2023-05-07T01:42:10;23.00;99.90
14473;DHT22;7322;50.872;4.386;2023-05-07T01:44:38;23.00;99.90
14473;DHT22;7322;50.872;4.386;2023-05-07T01:47:06;23.00;99.90
14473;DHT22;7322;50.872;4.386;2023-05-07T01:49:35;23.00;99.90
14473;DHT22;7322;50.872;4.386;2023-05-07T01:52:04;23.00;99.90
14473;DHT22;7322;50.872;4.386;2023-05-07T01:54:37;23.00;99.90
14473;DHT22;7322;50.872;4.386;2023-05-07T01:57:15;23.00;99.90
14473;DHT22;7322;50.872;4.386;2023-05-07T01:59:43;23.00;99.90
14473;DHT22;7322;50.872;4.386;2023-05-07T02:02:11;23.00;99.90
14473;DHT22;7322;50.872;4.386;2023-05-07T02:04:38;23.00;99.90
14473;DHT22;7322;50.872;4.386;2023-05-07T02:07:06;23.00;99.90
14473;DHT22;7322;50.872;4.386;2023-05-07T02:09:33;23.00;99.90
14473;DHT22;7322;50.872;4.386;2023-05-07T02:12:00;23.00;99.90
14473;DHT22;7322;50.872;4.386;2023-05-07T02:14:28;23.00;99.90
14473;DHT22;7322;50.872;4.386;2023-05-07T02:17:01;23.00;99.90
14473;DHT22;7322;50.872;4.386;2023-05-07T02:19:30;23.00;99.90
14473;DHT22;7322;50.872;4.386;2023-05-07T02:22:03;23.00;99.90
14473;DHT22;7322;50.872;4.386;2023-05-07T02:24:45;23.00;99.90
14473;DHT22;7322;50.872;4.386;2023-05-07T02:27:14;23.00;99.90
14473;DHT22;7322;50.872;4.386;2023-05-07T02:29:43;23.00;99.90
14473;DHT22;7322;50.872;4.386;2023-05-07T02:32:10;23.00;99.90
14473;DHT22;7322;50.872;4.386;2023-05-07T02:34:37;23.00;99.90
14473;DHT22;7322;50.872;4.386;2023-05-07T02:37:04;23.00;99.90
14473;DHT22;7322;50.872;4.386;2023-05-07T02:39:37;23.00;99.90
14473;DHT22;7322;50.872;4.386;2023-05-07T02:42:04;23.00;99.90
14473;DHT22;7322;50.872;4.386;2023-05-07T02:44:35;23.00;99.90
14473;DHT22;7322;50.872;4.386;2023-05-07T02:47:05;23.00;99.90
14473;DHT22;7322;50.872;4.386;2023-05-07T02:49:42;23.00;99.90
14473;DHT22;7322;50.872;4.386;2023-05-07T02:52:15;23.00;99.90
14473;DHT22;7322;50.872;4.386;2023-05-07T02:54:42;23.00;99.90
14473;DHT22;7322;50.872;4.386;2023-05-07T02:57:10;23.00;99.90
14473;DHT22;7322;50.872;4.386;2023-05-07T02:59:42;23.00;99.90
14473;DHT22;7322;50.872;4.386;2023-05-07T03:02:14;23.00;99.90
14473;DHT22;7322;50.872;4.386;2023-05-07T03:04:44;23.00;99.90
14473;DHT22;7322;50.872;4.386;2023-05-07T03:07:13;23.00;99.90
14473;DHT22;7322;50.872;4.386;2023-05-07T03:09:42;23.00;99.90
14473;DHT22;7322;50.872;4.386;2023-05-07T03:12:09;23.00;99.90
14473;DHT22;7322;50.872;4.386;2023-05-07T03:14:37;23.00;99.90
14473;DHT22;7322;50.872;4.386;2023-05-07T03:17:04;23.00;99.90
14473;DHT22;7322;50.872;4.386;2023-05-07T03:19:33;23.00;99.90
14473;DHT22;7322;50.872;4.386;2023-05-07T03:22:00;23.00;99.90
14473;DHT22;7322;50.872;4.386;2023-05-07T03:24:27;23.00;99.90
14473;DHT22;7322;50.872;4.386;2023-05-07T03:26:54;23.00;99.90
14473;DHT22;7322;50.872;4.386;2023-05-07T03:29:21;23.00;99.90
14473;DHT22;7322;50.872;4.386;2023-05-07T03:31:54;23.00;99.90
14473;DHT22;7322;50.872;4.386;2023-05-07T03:34:21;23.00;99.90
14473;DHT22;7322;50.872;4.386;2023-05-07T03:36:51;23.00;99.90
14473;DHT22;7322;50.872;4.386;2023-05-07T03:39:18;22.90;99.90
14473;DHT22;7322;50.872;4.386;2023-05-07T03:41:45;23.00;99.90
14473;DHT22;7322;50.872;4.386;2023-05-07T03:44:11;23.00;99.90
14473;DHT22;7322;50.872;4.386;2023-05-07T03:46:38;23.00;99.90
14473;DHT22;7322;50.872;4.386;2023-05-07T03:49:05;23.00;99.90
14473;DHT22;7322;50.872;4.386;2023-05-07T03:51:32;23.00;99.90
14473;DHT22;7322;50.872;4.386;2023-05-07T03:54:04;23.00;99.90
14473;DHT22;7322;50.872;4.386;2023-05-07T03:56:31;23.00;99.90
14473;DHT22;7322;50.872;4.386;2023-05-07T03:58:58;23.00;99.90
14473;DHT22;7322;50.872;4.386;2023-05-07T04:01:29;23.00;99.90
14473;DHT22;7322;50.872;4.386;2023-05-07T04:03:58;23.00;99.90
14473;DHT22;7322;50.872;4.386;2023-05-07T04:06:26;23.00;99.90
14473;DHT22;7322;50.872;4.386;2023-05-07T04:08:53;23.00;99.90
14473;DHT22;7322;50.872;4.386;2023-05-07T04:11:21;23.00;99.90
14473;DHT22;7322;50.872;4.386;2023-05-07T04:13:49;23.00;99.90
14473;DHT22;7322;50.872;4.386;2023-05-07T04:16:16;23.00;99.90
14473;DHT22;7322;50.872;4.386;2023-05-07T04:18:44;23.00;99.90
14473;DHT22;7322;50.872;4.386;2023-05-07T04:21:14;23.00;99.90
14473;DHT22;7322;50.872;4.386;2023-05-07T04:23:51;23.00;99.90
14473;DHT22;7322;50.872;4.386;2023-05-07T04:26:27;23.00;99.90
14473;DHT22;7322;50.872;4.386;2023-05-07T04:29:10;23.00;99.90
14473;DHT22;7322;50.872;4.386;2023-05-07T04:31:37;23.00;99.90
14473;DHT22;7322;50.872;4.386;2023-05-07T04:34:05;23.00;99.90
14473;DHT22;7322;50.872;4.386;2023-05-07T04:36:40;23.00;99.90
14473;DHT22;7322;50.872;4.386;2023-05-07T04:39:08;23.00;99.90
14473;DHT22;7322;50.872;4.386;2023-05-07T04:41:40;23.00;99.90
14473;DHT22;7322;50.872;4.386;2023-05-07T04:44:09;23.00;99.90
14473;DHT22;7322;50.872;4.386;2023-05-07T04:46:44;23.00;99.90
14473;DHT22;7322;50.872;4.386;2023-05-07T04:49:11;23.00;99.90
14473;DHT22;7322;50.872;4.386;2023-05-07T04:51:45;23.00;99.90
14473;DHT22;7322;50.872;4.386;2023-05-07T04:54:14;23.00;99.90
14473;DHT22;7322;50.872;4.386;2023-05-07T04:56:42;23.00;99.90
14473;DHT22;7322;50.872;4.386;2023-05-07T04:59:10;23.00;99.90
14473;DHT22;7322;50.872;4.386;2023-05-07T05:01:37;23.00;99.90
14473;DHT22;7322;50.872;4.386;2023-05-07T05:04:06;23.00;99.90
14473;DHT22;7322;50.872;4.386;2023-05-07T05:06:42;23.00;99.90
14473;DHT22;7322;50.872;4.386;2023-05-07T05:09:09;23.00;99.90
14473;DHT22;7322;50.872;4.386;2023-05-07T05:11:45;23.00;99.90
14473;DHT22;7322;50.872;4.386;2023-05-07T05:14:14;23.00;99.90
14473;DHT22;7322;50.872;4.386;2023-05-07T05:16:42;23.00;99.90
14473;DHT22;7322;50.872;4.386;2023-05-07T05:19:14;23.00;99.90
14473;DHT22;7322;50.872;4.386;2023-05-07T05:21:42;23.00;99.90
14473;DHT22;7322;50.872;4.386;2023-05-07T05:24:15;23.00;99.90
14473;DHT22;7322;50.872;4.386;2023-05-07T05:26:49;23.00;99.90
14473;DHT22;7322;50.872;4.386;2023-05-07T05:29:16;23.00;99.90
14473;DHT22;7322;50.872;4.386;2023-05-07T05:32:14;23.00;99.90
14473;DHT22;7322;50.872;4.386;2023-05-07T05:37:45;23.00;99.90
14473;DHT22;7322;50.872;4.386;2023-05-07T05:40:20;23.00;99.90
14473;DHT22;7322;50.872;4.386;2023-05-07T05:42:50;23.00;99.90
14473;DHT22;7322;50.872;4.386;2023-05-07T05:45:27;23.00;99.90
14473;DHT22;7322;50.872;4.386;2023-05-07T05:48:02;23.00;99.90
14473;DHT22;7322;50.872;4.386;2023-05-07T05:50:29;23.00;99.90
14473;DHT22;7322;50.872;4.386;2023-05-07T05:53:04;23.00;99.90
14473;DHT22;7322;50.872;4.386;2023-05-07T05:55:39;23.00;99.90
14473;DHT22;7322;50.872;4.386;2023-05-07T05:58:14;23.00;99.90
14473;DHT22;7322;50.872;4.386;2023-05-07T06:00:44;23.00;99.90
14473;DHT22;7322;50.872;4.386;2023-05-07T06:03:23;23.00;99.90
14473;DHT22;7322;50.872;4.386;2023-05-07T06:05:50;23.00;99.90
14473;DHT22;7322;50.872;4.386;2023-05-07T06:08:18;23.00;99.90
14473;DHT22;7322;50.872;4.386;2023-05-07T06:10:46;22.90;99.90
14473;DHT22;7322;50.872;4.386;2023-05-07T06:13:16;22.90;99.90
14473;DHT22;7322;50.872;4.386;2023-05-07T06:15:43;22.90;99.90
14473;DHT22;7322;50.872;4.386;2023-05-07T06:18:10;22.90;99.90
14473;DHT22;7322;50.872;4.386;2023-05-07T06:20:38;22.90;99.90
14473;DHT22;7322;50.872;4.386;2023-05-07T06:23:05;22.90;99.90
14473;DHT22;7322;50.872;4.386;2023-05-07T06:25:32;22.90;99.90
14473;DHT22;7322;50.872;4.386;2023-05-07T06:27:59;22.90;99.90
14473;DHT22;7322;50.872;4.386;2023-05-07T06:30:28;22.90;99.90
14473;DHT22;7322;50.872;4.386;2023-05-07T06:32:55;22.90;99.90
14473;DHT22;7322;50.872;4.386;2023-05-07T06:35:22;22.90;99.90
14473;DHT22;7322;50.872;4.386;2023-05-07T06:37:49;22.90;99.90
14473;DHT22;7322;50.872;4.386;2023-05-07T06:40:16;22.90;99.90
14473;DHT22;7322;50.872;4.386;2023-05-07T06:42:43;22.90;99.90
14473;DHT22;7322;50.872;4.386;2023-05-07T06:45:11;22.90;99.90
14473;DHT22;7322;50.872;4.386;2023-05-07T06:47:39;22.90;99.90
14473;DHT22;7322;50.872;4.386;2023-05-07T06:50:07;23.00;99.90
14473;DHT22;7322;50.872;4.386;2023-05-07T06:52:35;23.00;99.90
14473;DHT22;7322;50.872;4.386;2023-05-07T06:55:03;23.00;99.90
14473;DHT22;7322;50.872;4.386;2023-05-07T06:57:32;22.90;99.90
14473;DHT22;7322;50.872;4.386;2023-05-07T07:00:00;22.90;99.90
14473;DHT22;7322;50.872;4.386;2023-05-07T07:02:28;23.00;99.90
14473;DHT22;7322;50.872;4.386;2023-05-07T07:04:57;23.00;99.90
14473;DHT22;7322;50.872;4.386;2023-05-07T07:07:24;23.00;99.90
14473;DHT22;7322;50.872;4.386;2023-05-07T07:10:00;23.00;99.90
14473;DHT22;7322;50.872;4.386;2023-05-07T07:12:28;23.00;99.90
14473;DHT22;7322;50.872;4.386;2023-05-07T07:15:04;23.00;99.90
14473;DHT22;7322;50.872;4.386;2023-05-07T07:17:31;23.00;99.90
14473;DHT22;7322;50.872;4.386;2023-05-07T07:20:09;23.00;99.90
14473;DHT22;7322;50.872;4.386;2023-05-07T07:22:37;23.00;99.90
14473;DHT22;7322;50.872;4.386;2023-05-07T07:25:05;23.00;99.90
14473;DHT22;7322;50.872;4.386;2023-05-07T07:27:35;23.00;99.90
14473;DHT22;7322;50.872;4.386;2023-05-07T07:30:04;23.00;99.90
14473;DHT22;7322;50.872;4.386;2023-05-07T07:32:39;23.00;99.90
14473;DHT22;7322;50.872;4.386;2023-05-07T07:35:19;23.00;99.90
14473;DHT22;7322;50.872;4.386;2023-05-07T07:37:52;23.00;99.90
14473;DHT22;7322;50.872;4.386;2023-05-07T07:40:34;23.00;99.90
14473;DHT22;7322;50.872;4.386;2023-05-07T07:43:11;23.00;99.90
14473;DHT22;7322;50.872;4.386;2023-05-07T07:45:49;23.00;99.90
14473;DHT22;7322;50.872;4.386;2023-05-07T07:48:27;23.00;99.90
14473;DHT22;7322;50.872;4.386;2023-05-07T07:50:56;23.00;99.90
14473;DHT22;7322;50.872;4.386;2023-05-07T07:53:44;23.00;99.90
14473;DHT22;7322;50.872;4.386;2023-05-07T07:56:14;23.00;99.90
14473;DHT22;7322;50.872;4.386;2023-05-07T07:58:55;22.90;99.90
14473;DHT22;7322;50.872;4.386;2023-05-07T08:01:38;23.00;99.90
14473;DHT22;7322;50.872;4.386;2023-05-07T08:04:05;23.00;99.90
14473;DHT22;7322;50.872;4.386;2023-05-07T08:06:40;23.00;99.90
14473;DHT22;7322;50.872;4.386;2023-05-07T08:09:15;23.00;99.90
14473;DHT22;7322;50.872;4.386;2023-05-07T08:11:55;23.00;99.90
14473;DHT22;7322;50.872;4.386;2023-05-07T08:14:59;23.00;99.90
14473;DHT22;7322;50.872;4.386;2023-05-07T08:17:28;23.00;99.90
14473;DHT22;7322;50.872;4.386;2023-05-07T08:20:07;23.00;99.90
14473;DHT22;7322;50.872;4.386;2023-05-07T08:22:57;23.10;99.90
14473;DHT22;7322;50.872;4.386;2023-05-07T08:25:26;23.10;99.90
14473;DHT22;7322;50.872;4.386;2023-05-07T08:28:13;23.00;99.90
14473;DHT22;7322;50.872;4.386;2023-05-07T08:30:41;23.10;99.90
14473;DHT22;7322;50.872;4.386;2023-05-07T08:33:25;23.00;99.90
14473;DHT22;7322;50.872;4.386;2023-05-07T08:35:54;23.10;99.90
14473;DHT22;7322;50.872;4.386;2023-05-07T08:38:31;23.10;99.90
14473;DHT22;7322;50.872;4.386;2023-05-07T08:41:02;23.10;99.90
14473;DHT22;7322;50.872;4.386;2023-05-07T08:43:32;23.10;99.90
14473;DHT22;7322;50.872;4.386;2023-05-07T08:46:02;23.10;99.90
14473;DHT22;7322;50.872;4.386;2023-05-07T08:48:37;23.10;99.90
14473;DHT22;7322;50.872;4.386;2023-05-07T08:51:05;23.10;99.90
14473;DHT22;7322;50.872;4.386;2023-05-07T08:53:33;23.10;99.90
14473;DHT22;7322;50.872;4.386;2023-05-07T08:56:15;23.10;99.90
14473;DHT22;7322;50.872;4.386;2023-05-07T08:58:42;23.10;99.90
14473;DHT22;7322;50.872;4.386;2023-05-07T09:01:12;23.10;99.90
14473;DHT22;7322;50.872;4.386;2023-05-07T09:03:44;23.10;99.90
14473;DHT22;7322;50.872;4.386;2023-05-07T09:06:15;23.10;99.90
14473;DHT22;7322;50.872;4.386;2023-05-07T09:08:51;23.10;99.90
14473;DHT22;7322;50.872;4.386;2023-05-07T09:11:32;23.10;99.90
14473;DHT22;7322;50.872;4.386;2023-05-07T09:14:00;23.20;99.90
14473;DHT22;7322;50.872;4.386;2023-05-07T09:16:29;23.10;99.90
14473;DHT22;7322;50.872;4.386;2023-05-07T09:19:03;23.10;99.90
14473;DHT22;7322;50.872;4.386;2023-05-07T09:21:37;23.10;99.90
14473;DHT22;7322;50.872;4.386;2023-05-07T09:24:08;23.10;99.90
14473;DHT22;7322;50.872;4.386;2023-05-07T09:26:58;23.10;99.90
14473;DHT22;7322;50.872;4.386;2023-05-07T09:29:28;23.20;99.90
14473;DHT22;7322;50.872;4.386;2023-05-07T09:32:14;23.20;99.90
14473;DHT22;7322;50.872;4.386;2023-05-07T09:34:41;23.20;99.90
14473;DHT22;7322;50.872;4.386;2023-05-07T09:37:15;23.20;99.90
14473;DHT22;7322;50.872;4.386;2023-05-07T09:39:47;23.20;99.90
14473;DHT22;7322;50.872;4.386;2023-05-07T09:42:15;23.20;99.90
14473;DHT22;7322;50.872;4.386;2023-05-07T09:44:44;23.20;99.90
14473;DHT22;7322;50.872;4.386;2023-05-07T09:47:19;23.20;99.90
14473;DHT22;7322;50.872;4.386;2023-05-07T09:49:48;23.30;99.90
14473;DHT22;7322;50.872;4.386;2023-05-07T09:52:18;23.20;99.90
14473;DHT22;7322;50.872;4.386;2023-05-07T09:55:16;23.30;99.90
14473;DHT22;7322;50.872;4.386;2023-05-07T09:57:45;23.30;99.90
14473;DHT22;7322;50.872;4.386;2023-05-07T10:00:15;23.30;99.90
14473;DHT22;7322;50.872;4.386;2023-05-07T10:02:45;23.30;99.90
14473;DHT22;7322;50.872;4.386;2023-05-07T10:05:15;23.30;99.90
14473;DHT22;7322;50.872;4.386;2023-05-07T10:07:50;23.30;99.90
14473;DHT22;7322;50.872;4.386;2023-05-07T10:10:19;23.30;99.90
14473;DHT22;7322;50.872;4.386;2023-05-07T10:12:47;23.30;99.90
14473;DHT22;7322;50.872;4.386;2023-05-07T10:15:15;23.30;99.90
14473;DHT22;7322;50.872;4.386;2023-05-07T10:17:42;23.30;99.90
14473;DHT22;7322;50.872;4.386;2023-05-07T10:20:15;23.30;99.90
14473;DHT22;7322;50.872;4.386;2023-05-07T10:22:49;23.30;99.90
14473;DHT22;7322;50.872;4.386;2023-05-07T10:25:22;23.30;99.90
14473;DHT22;7322;50.872;4.386;2023-05-07T10:27:53;23.30;99.90
14473;DHT22;7322;50.872;4.386;2023-05-07T10:30:29;23.30;99.90
14473;DHT22;7322;50.872;4.386;2023-05-07T10:33:04;23.30;99.90
14473;DHT22;7322;50.872;4.386;2023-05-07T10:35:42;23.30;99.90
14473;DHT22;7322;50.872;4.386;2023-05-07T10:38:15;23.30;99.90
14473;DHT22;7322;50.872;4.386;2023-05-07T10:40:44;23.30;99.90
14473;DHT22;7322;50.872;4.386;2023-05-07T10:43:11;23.30;99.90
14473;DHT22;7322;50.872;4.386;2023-05-07T10:49:09;23.30;99.90
14473;DHT22;7322;50.872;4.386;2023-05-07T10:51:44;23.30;99.90
14473;DHT22;7322;50.872;4.386;2023-05-07T10:54:25;23.30;99.90
14473;DHT22;7322;50.872;4.386;2023-05-07T10:59:46;23.40;99.90
14473;DHT22;7322;50.872;4.386;2023-05-07T11:05:45;23.40;99.90
14473;DHT22;7322;50.872;4.386;2023-05-07T11:08:15;23.40;99.90
14473;DHT22;7322;50.872;4.386;2023-05-07T11:11:14;23.30;99.90
14473;DHT22;7322;50.872;4.386;2023-05-07T11:13:59;23.40;99.90
14473;DHT22;7322;50.872;4.386;2023-05-07T11:16:40;23.40;99.90
14473;DHT22;7322;50.872;4.386;2023-05-07T11:19:10;23.40;99.90
14473;DHT22;7322;50.872;4.386;2023-05-07T11:21:45;23.40;99.90
14473;DHT22;7322;50.872;4.386;2023-05-07T11:24:12;23.40;99.90
14473;DHT22;7322;50.872;4.386;2023-05-07T11:26:46;23.40;99.90
14473;DHT22;7322;50.872;4.386;2023-05-07T11:29:16;23.40;99.90
14473;DHT22;7322;50.872;4.386;2023-05-07T11:31:48;23.40;99.90
14473;DHT22;7322;50.872;4.386;2023-05-07T11:34:15;23.40;99.90
14473;DHT22;7322;50.872;4.386;2023-05-07T11:36:53;23.40;99.90
14473;DHT22;7322;50.872;4.386;2023-05-07T11:39:29;23.50;99.90
14473;DHT22;7322;50.872;4.386;2023-05-07T11:42:28;23.50;99.90
14473;DHT22;7322;50.872;4.386;2023-05-07T11:44:56;23.50;99.90
14473;DHT22;7322;50.872;4.386;2023-05-07T11:47:33;23.40;99.90
14473;DHT22;7322;50.872;4.386;2023-05-07T11:50:05;23.50;99.90
14473;DHT22;7322;50.872;4.386;2023-05-07T11:52:33;23.40;99.90
14473;DHT22;7322;50.872;4.386;2023-05-07T11:55:07;23.40;99.90
14473;DHT22;7322;50.872;4.386;2023-05-07T11:57:42;23.40;99.90
14473;DHT22;7322;50.872;4.386;2023-05-07T12:00:15;23.50;99.90
14473;DHT22;7322;50.872;4.386;2023-05-07T12:02:46;23.50;99.90
14473;DHT22;7322;50.872;4.386;2023-05-07T12:05:41;23.50;99.90
14473;DHT22;7322;50.872;4.386;2023-05-07T12:08:08;23.50;99.90
14473;DHT22;7322;50.872;4.386;2023-05-07T12:10:46;23.50;99.90
14473;DHT22;7322;50.872;4.386;2023-05-07T12:13:29;23.50;99.90
14473;DHT22;7322;50.872;4.386;2023-05-07T12:16:09;23.50;99.90
14473;DHT22;7322;50.872;4.386;2023-05-07T12:18:41;23.50;99.90
14473;DHT22;7322;50.872;4.386;2023-05-07T12:21:22;23.50;99.90
14473;DHT22;7322;50.872;4.386;2023-05-07T12:23:50;23.50;99.90
14473;DHT22;7322;50.872;4.386;2023-05-07T12:26:20;23.50;99.90
14473;DHT22;7322;50.872;4.386;2023-05-07T12:32:16;23.50;99.90
14473;DHT22;7322;50.872;4.386;2023-05-07T12:34:49;23.50;99.90
14473;DHT22;7322;50.872;4.386;2023-05-07T12:37:24;23.50;99.90
14473;DHT22;7322;50.872;4.386;2023-05-07T12:40:04;23.50;99.90
14473;DHT22;7322;50.872;4.386;2023-05-07T12:42:39;23.50;99.90
14473;DHT22;7322;50.872;4.386;2023-05-07T12:45:15;23.50;99.90
14473;DHT22;7322;50.872;4.386;2023-05-07T12:47:45;23.50;99.90
14473;DHT22;7322;50.872;4.386;2023-05-07T12:50:16;23.50;99.90
14473;DHT22;7322;50.872;4.386;2023-05-07T12:52:47;23.50;99.90
14473;DHT22;7322;50.872;4.386;2023-05-07T12:55:16;23.50;99.90
14473;DHT22;7322;50.872;4.386;2023-05-07T12:57:48;23.50;99.90
14473;DHT22;7322;50.872;4.386;2023-05-07T13:00:16;23.50;99.90
14473;DHT22;7322;50.872;4.386;2023-05-07T13:02:45;23.50;99.90
14473;DHT22;7322;50.872;4.386;2023-05-07T13:05:17;23.50;99.90
14473;DHT22;7322;50.872;4.386;2023-05-07T13:07:52;23.50;99.90
14473;DHT22;7322;50.872;4.386;2023-05-07T13:10:27;23.60;99.90
14473;DHT22;7322;50.872;4.386;2023-05-07T13:13:14;23.50;99.90
14473;DHT22;7322;50.872;4.386;2023-05-07T13:15:53;23.60;99.90
14473;DHT22;7322;50.872;4.386;2023-05-07T13:18:47;23.60;99.90
14473;DHT22;7322;50.872;4.386;2023-05-07T13:21:16;23.50;99.90
14473;DHT22;7322;50.872;4.386;2023-05-07T13:23:45;23.50;99.90
14473;DHT22;7322;50.872;4.386;2023-05-07T13:26:16;23.50;99.90
14473;DHT22;7322;50.872;4.386;2023-05-07T13:28:44;23.50;99.90
14473;DHT22;7322;50.872;4.386;2023-05-07T13:31:14;23.50;99.90
14473;DHT22;7322;50.872;4.386;2023-05-07T13:33:42;23.50;99.90
14473;DHT22;7322;50.872;4.386;2023-05-07T13:36:17;23.50;99.90
14473;DHT22;7322;50.872;4.386;2023-05-07T13:38:45;23.50;99.90
14473;DHT22;7322;50.872;4.386;2023-05-07T13:41:30;23.50;99.90
14473;DHT22;7322;50.872;4.386;2023-05-07T13:44:14;23.50;99.90
14473;DHT22;7322;50.872;4.386;2023-05-07T13:46:41;23.50;99.90
14473;DHT22;7322;50.872;4.386;2023-05-07T13:49:15;23.50;99.90
14473;DHT22;7322;50.872;4.386;2023-05-07T13:51:46;23.50;99.90
14473;DHT22;7322;50.872;4.386;2023-05-07T13:54:14;23.50;99.90
14473;DHT22;7322;50.872;4.386;2023-05-07T13:56:44;23.50;99.90
14473;DHT22;7322;50.872;4.386;2023-05-07T13:59:19;23.50;99.90
14473;DHT22;7322;50.872;4.386;2023-05-07T14:01:49;23.50;99.90
14473;DHT22;7322;50.872;4.386;2023-05-07T14:04:40;23.50;99.90
14473;DHT22;7322;50.872;4.386;2023-05-07T14:07:08;23.50;99.90
14473;DHT22;7322;50.872;4.386;2023-05-07T14:09:36;23.50;99.90
14473;DHT22;7322;50.872;4.386;2023-05-07T14:12:14;23.50;99.90
14473;DHT22;7322;50.872;4.386;2023-05-07T14:15:14;23.50;99.90
14473;DHT22;7322;50.872;4.386;2023-05-07T14:18:03;23.50;99.90
14473;DHT22;7322;50.872;4.386;2023-05-07T14:24:16;23.50;99.90
14473;DHT22;7322;50.872;4.386;2023-05-07T14:26:51;23.50;99.90
14473;DHT22;7322;50.872;4.386;2023-05-07T14:29:44;23.50;99.90
14473;DHT22;7322;50.872;4.386;2023-05-07T14:32:24;23.50;99.90
14473;DHT22;7322;50.872;4.386;2023-05-07T14:34:51;23.50;99.90
14473;DHT22;7322;50.872;4.386;2023-05-07T14:37:43;23.50;99.90
14473;DHT22;7322;50.872;4.386;2023-05-07T14:40:19;23.50;99.90
14473;DHT22;7322;50.872;4.386;2023-05-07T14:43:05;23.50;99.90
14473;DHT22;7322;50.872;4.386;2023-05-07T14:45:45;23.50;99.90
14473;DHT22;7322;50.872;4.386;2023-05-07T14:48:14;23.50;99.90
14473;DHT22;7322;50.872;4.386;2023-05-07T14:50:46;23.50;99.90
14473;DHT22;7322;50.872;4.386;2023-05-07T14:53:15;23.50;99.90
14473;DHT22;7322;50.872;4.386;2023-05-07T14:56:12;23.50;99.90
14473;DHT22;7322;50.872;4.386;2023-05-07T14:58:47;23.50;99.90
14473;DHT22;7322;50.872;4.386;2023-05-07T15:01:43;23.50;99.90
14473;DHT22;7322;50.872;4.386;2023-05-07T15:04:22;23.50;99.90
14473;DHT22;7322;50.872;4.386;2023-05-07T15:06:57;23.50;99.90
14473;DHT22;7322;50.872;4.386;2023-05-07T15:09:25;23.50;99.90
14473;DHT22;7322;50.872;4.386;2023-05-07T15:12:11;23.40;99.90
14473;DHT22;7322;50.872;4.386;2023-05-07T15:14:45;23.50;99.90
14473;DHT22;7322;50.872;4.386;2023-05-07T15:20:14;23.50;99.90
14473;DHT22;7322;50.872;4.386;2023-05-07T15:22:45;23.40;99.90
14473;DHT22;7322;50.872;4.386;2023-05-07T15:25:31;23.40;99.90
14473;DHT22;7322;50.872;4.386;2023-05-07T15:28:13;23.50;99.90
14473;DHT22;7322;50.872;4.386;2023-05-07T15:30:46;23.40;99.90
14473;DHT22;7322;50.872;4.386;2023-05-07T15:33:13;23.40;99.90
14473;DHT22;7322;50.872;4.386;2023-05-07T15:35:40;23.40;99.90
14473;DHT22;7322;50.872;4.386;2023-05-07T15:38:15;23.40;99.90
14473;DHT22;7322;50.872;4.386;2023-05-07T15:40:48;23.40;99.90
14473;DHT22;7322;50.872;4.386;2023-05-07T15:43:43;23.40;99.90
14473;DHT22;7322;50.872;4.386;2023-05-07T15:46:44;23.40;99.90
14473;DHT22;7322;50.872;4.386;2023-05-07T15:49:15;23.40;99.90
14473;DHT22;7322;50.872;4.386;2023-05-07T15:51:59;23.40;99.90
14473;DHT22;7322;50.872;4.386;2023-05-07T15:54:29;23.40;99.90
14473;DHT22;7322;50.872;4.386;2023-05-07T15:57:15;23.40;99.90
14473;DHT22;7322;50.872;4.386;2023-05-07T15:59:45;23.40;99.90
14473;DHT22;7322;50.872;4.386;2023-05-07T16:02:15;23.40;99.90
14473;DHT22;7322;50.872;4.386;2023-05-07T16:04:49;23.40;99.90
14473;DHT22;7322;50.872;4.386;2023-05-07T16:07:37;23.40;99.90
14473;DHT22;7322;50.872;4.386;2023-05-07T16:10:09;23.40;99.90
14473;DHT22;7322;50.872;4.386;2023-05-07T16:12:36;23.40;99.90
14473;DHT22;7322;50.872;4.386;2023-05-07T16:18:15;23.40;99.90
14473;DHT22;7322;50.872;4.386;2023-05-07T16:20:58;23.30;99.90
14473;DHT22;7322;50.872;4.386;2023-05-07T16:23:44;23.40;99.90
14473;DHT22;7322;50.872;4.386;2023-05-07T16:26:18;23.40;99.90
14473;DHT22;7322;50.872;4.386;2023-05-07T16:28:45;23.40;99.90
14473;DHT22;7322;50.872;4.386;2023-05-07T16:31:44;23.30;99.90
14473;DHT22;7322;50.872;4.386;2023-05-07T16:34:16;23.40;99.90
14473;DHT22;7322;50.872;4.386;2023-05-07T16:36:58;23.30;99.90
14473;DHT22;7322;50.872;4.386;2023-05-07T16:39:30;23.40;99.90
14473;DHT22;7322;50.872;4.386;2023-05-07T16:41:59;23.30;99.90
14473;DHT22;7322;50.872;4.386;2023-05-07T16:44:33;23.30;99.90